AerodromSadržaj METAR izveštaja
LYBEMETAR LYBE 010100Z 04005KT CAVOK M02/M08 Q1021 NOSIG=
LYBTMETAR LYBT 010100Z VRB01KT CAVOK M02/M06 Q1021 NOSIG=
LYKVMETAR LYKV 010100Z VRB02KT 3000 SN BKN015 OVC030 00/00 Q1021 NOSIG=
LYNIMETAR LYNI 010100Z 33010KT 6000 +SN SCT008 BKN027 M00/M01 Q1019 NOSIG=
LYVRMETAR LYVR 010100Z AUTO 06003KT 030V100 CAVOK 00/M04 Q1022=
LYUZMETAR LYUZ 010100Z AUTO 33006KT CAVOK M05/M07 Q1016=
LYPGMETAR LYPG 010100Z 02011KT 9999 -RASN SCT016 BKN023 OVC070 03/00 Q1016 NOSIG=
LYTVMETAR LYTV 010030Z VRB11KT 9999 SCT030 OVC073 05/M01 Q1013=

Podaci učitani u: 2020-04-01 01:03:30 UTC

METAR, TAF, AIRMET, GAMET, SIGMET

Važna napomena: MET infоrmаciје nа оvim web strаnicаmа imајu infоrmаtivni kаrаktеr, nаmenjene su isključivo vаzduhоplоvnim kоrisnicima, nе smејu sе kоristiti zа bilо kоје kоmеrciјаlnе svrhе, i nе zаmеnjuјu dоkumеntаciјu zа lеt.